createdAt,value
2023-03-06T00:00:20.561Z,47.27
2023-03-06T00:02:48.876Z,46.00
2023-03-06T00:05:17.189Z,45.30
2023-03-06T00:07:45.554Z,46.47
2023-03-06T00:10:16.173Z,44.93
2023-03-06T00:12:45.741Z,48.73
2023-03-06T00:15:15.046Z,46.97
2023-03-06T00:17:43.226Z,43.57
2023-03-06T00:20:12.801Z,45.47
2023-03-06T00:22:44.284Z,44.80
2023-03-06T00:25:15.742Z,47.20
2023-03-06T00:27:45.801Z,48.33
2023-03-06T00:30:16.787Z,46.07
2023-03-06T00:32:45.581Z,47.93
2023-03-06T00:35:14.595Z,46.97
2023-03-06T00:37:43.053Z,46.67
2023-03-06T00:40:13.904Z,47.60
2023-03-06T00:42:43.627Z,49.97
2023-03-06T00:45:16.504Z,52.40
2023-03-06T00:47:44.806Z,44.90
2023-03-06T00:50:13.499Z,46.97
2023-03-06T00:52:42.381Z,46.43
2023-03-06T00:55:11.582Z,42.83
2023-03-06T00:57:39.709Z,47.90
2023-03-06T01:00:09.318Z,47.73
2023-03-06T01:02:38.910Z,48.20
2023-03-06T01:05:08.283Z,50.40
2023-03-06T01:07:37.091Z,49.40
2023-03-06T01:10:07.894Z,44.57
2023-03-06T01:12:36.282Z,46.23
2023-03-06T01:15:05.941Z,50.07
2023-03-06T01:17:34.102Z,44.57
2023-03-06T01:20:03.646Z,44.83
2023-03-06T01:22:32.159Z,48.97
2023-03-06T01:25:00.301Z,44.70
2023-03-06T01:27:28.422Z,50.47
2023-03-06T01:29:56.821Z,49.10
2023-03-06T01:32:25.045Z,43.33
2023-03-06T01:34:53.347Z,49.07
2023-03-06T01:37:23.055Z,50.37
2023-03-06T01:39:51.193Z,45.83
2023-03-06T01:42:19.377Z,43.13
2023-03-06T01:45:07.406Z,47.20
2023-03-06T01:47:35.578Z,51.33
2023-03-06T01:50:05.500Z,47.53
2023-03-06T01:52:40.546Z,49.13
2023-03-06T01:55:12.251Z,44.30
2023-03-06T01:57:48.595Z,47.10
2023-03-06T02:00:19.449Z,52.13
2023-03-06T02:02:54.345Z,52.77
2023-03-06T02:05:23.396Z,46.33
2023-03-06T02:07:53.423Z,51.57
2023-03-06T02:10:22.883Z,49.93
2023-03-06T02:12:52.918Z,50.07
2023-03-06T02:15:23.378Z,47.47
2023-03-06T02:17:52.807Z,47.77
2023-03-06T02:20:28.036Z,49.80
2023-03-06T02:23:04.288Z,48.93
2023-03-06T02:25:37.945Z,56.40
2023-03-06T02:28:07.655Z,49.23
2023-03-06T02:30:36.917Z,51.20
2023-03-06T02:33:06.036Z,52.83
2023-03-06T02:35:35.846Z,54.03
2023-03-06T02:38:08.171Z,56.77
2023-03-06T02:40:37.945Z,51.90
2023-03-06T02:43:07.083Z,58.33
2023-03-06T02:45:39.067Z,51.63
2023-03-06T02:48:07.997Z,54.43
2023-03-06T02:50:36.135Z,50.60
2023-03-06T02:53:04.310Z,54.93
2023-03-06T02:55:32.830Z,55.60
2023-03-06T02:58:02.741Z,51.43
2023-03-06T03:00:31.975Z,53.63
2023-03-06T03:03:00.191Z,55.77
2023-03-06T03:05:28.494Z,54.77
2023-03-06T03:07:57.104Z,51.17
2023-03-06T03:10:25.737Z,55.67
2023-03-06T03:12:54.153Z,54.83
2023-03-06T03:15:23.789Z,59.03
2023-03-06T03:17:51.974Z,62.07
2023-03-06T03:20:21.988Z,54.90
2023-03-06T03:22:50.377Z,51.57
2023-03-06T03:25:19.109Z,60.20
2023-03-06T03:27:47.539Z,58.77
2023-03-06T03:30:16.755Z,60.27
2023-03-06T03:32:46.269Z,56.60
2023-03-06T03:35:14.573Z,55.20
2023-03-06T03:37:43.046Z,61.87
2023-03-06T03:40:12.187Z,62.43
2023-03-06T03:42:40.413Z,64.17
2023-03-06T03:45:09.565Z,57.33
2023-03-06T03:47:37.962Z,58.67
2023-03-06T03:50:08.642Z,55.07
2023-03-06T03:52:36.915Z,63.73
2023-03-06T03:55:05.468Z,65.00
2023-03-06T03:57:33.724Z,69.87
2023-03-06T04:00:01.870Z,72.77
2023-03-06T04:02:30.392Z,65.53
2023-03-06T04:04:58.692Z,61.17
2023-03-06T04:07:28.355Z,67.63
2023-03-06T04:09:56.661Z,61.60
2023-03-06T04:12:25.021Z,68.23
2023-03-06T04:14:53.410Z,66.30
2023-03-06T04:17:21.529Z,66.73
2023-03-06T04:19:49.905Z,64.23
2023-03-06T04:22:18.216Z,68.00
2023-03-06T04:24:49.444Z,67.17
2023-03-06T04:27:17.746Z,62.67
2023-03-06T04:29:46.128Z,62.97
2023-03-06T04:32:14.248Z,61.63
2023-03-06T04:34:42.602Z,66.77
2023-03-06T04:37:19.240Z,64.15
2023-03-06T04:39:48.907Z,62.90
2023-03-06T04:42:17.422Z,65.80
2023-03-06T04:44:45.933Z,61.53
2023-03-06T04:47:14.722Z,70.50
2023-03-06T04:49:45.942Z,65.33
2023-03-06T04:52:14.205Z,67.13
2023-03-06T04:54:42.900Z,63.13
2023-03-06T04:57:14.174Z,65.30
2023-03-06T04:59:42.372Z,61.60
2023-03-06T05:02:10.580Z,63.77
2023-03-06T05:04:38.795Z,72.93
2023-03-06T05:07:07.122Z,65.70
2023-03-06T05:09:36.525Z,65.27
2023-03-06T05:12:05.708Z,68.53
2023-03-06T05:14:35.513Z,62.07
2023-03-06T05:17:03.721Z,62.67
2023-03-06T05:19:31.867Z,62.30
2023-03-06T05:22:00.134Z,59.70
2023-03-06T05:24:28.477Z,64.73
2023-03-06T05:26:56.689Z,63.70
2023-03-06T05:29:25.170Z,63.27
2023-03-06T05:31:54.847Z,66.17
2023-03-06T05:34:23.055Z,65.80
2023-03-06T05:36:51.223Z,62.23
2023-03-06T05:39:19.490Z,68.90
2023-03-06T05:41:47.615Z,60.40
2023-03-06T05:44:15.971Z,64.07
2023-03-06T05:46:46.519Z,63.97
2023-03-06T05:49:16.160Z,59.20
2023-03-06T05:51:44.373Z,66.57
2023-03-06T05:54:12.679Z,69.90
2023-03-06T05:56:42.759Z,69.77
2023-03-06T05:59:11.053Z,68.43
2023-03-06T06:01:39.383Z,73.73
2023-03-06T06:04:07.545Z,62.00
2023-03-06T06:06:37.025Z,62.23
2023-03-06T06:09:05.851Z,64.17
2023-03-06T06:11:34.151Z,61.87
2023-03-06T06:14:03.931Z,63.93
2023-03-06T06:16:32.123Z,65.67
2023-03-06T06:19:00.261Z,66.63
2023-03-06T06:21:28.424Z,63.23
2023-03-06T06:23:58.015Z,66.47
2023-03-06T06:26:26.243Z,67.20
2023-03-06T06:28:54.342Z,60.87
2023-03-06T06:31:22.748Z,65.03
2023-03-06T06:33:51.190Z,59.73
2023-03-06T06:36:21.101Z,62.43
2023-03-06T06:38:49.823Z,66.23
2023-03-06T06:41:51.085Z,66.03
2023-03-06T06:44:10.495Z,59.03
2023-03-06T06:47:20.846Z,60.17
2023-03-06T06:49:27.418Z,69.40
2023-03-06T06:51:55.753Z,65.17
2023-03-06T06:54:23.916Z,64.73
2023-03-06T06:56:53.599Z,66.73
2023-03-06T06:59:23.648Z,73.67
2023-03-06T07:01:52.260Z,65.53
2023-03-06T07:04:21.177Z,62.93
2023-03-06T07:06:49.648Z,65.10
2023-03-06T07:09:17.958Z,64.70
2023-03-06T07:11:46.274Z,57.40
2023-03-06T07:14:16.035Z,69.53
2023-03-06T07:16:44.315Z,62.40
2023-03-06T07:19:12.654Z,61.47
2023-03-06T07:21:41.104Z,65.37
2023-03-06T07:24:09.493Z,63.60
2023-03-06T07:26:37.890Z,58.23
2023-03-06T07:29:06.530Z,66.27
2023-03-06T07:31:36.187Z,62.97
2023-03-06T07:34:05.134Z,60.87
2023-03-06T07:36:33.909Z,64.27
2023-03-06T07:39:02.206Z,66.53
2023-03-06T07:41:30.399Z,61.47
2023-03-06T07:43:58.690Z,57.93
2023-03-06T07:46:27.075Z,58.30
2023-03-06T07:48:58.239Z,56.57
2023-03-06T07:51:26.891Z,58.30
2023-03-06T07:53:55.046Z,52.43
2023-03-06T07:56:23.202Z,50.33
2023-03-06T07:58:51.485Z,53.57
2023-03-06T08:01:23.590Z,51.50
2023-03-06T08:03:52.506Z,45.93
2023-03-06T08:06:24.051Z,44.17
2023-03-06T08:08:53.609Z,44.37
2023-03-06T08:11:23.788Z,46.27
2023-03-06T08:13:53.721Z,47.80
2023-03-06T08:16:22.597Z,47.57
2023-03-06T08:18:51.486Z,45.27
2023-03-06T08:21:23.625Z,50.03
2023-03-06T08:23:52.750Z,49.47
2023-03-06T08:26:22.383Z,47.20
2023-03-06T08:28:52.584Z,45.37
2023-03-06T08:31:27.317Z,45.27
2023-03-06T08:33:56.854Z,45.83
2023-03-06T08:36:26.705Z,49.67
2023-03-06T08:38:55.150Z,49.13
2023-03-06T08:41:24.609Z,50.83
2023-03-06T08:43:52.737Z,44.43
2023-03-06T08:46:24.197Z,49.20
2023-03-06T08:48:52.631Z,45.27
2023-03-06T08:51:23.048Z,45.07
2023-03-06T08:53:53.996Z,47.67
2023-03-06T08:56:24.903Z,51.27
2023-03-06T08:58:53.520Z,49.20
2023-03-06T09:01:24.433Z,43.27
2023-03-06T09:03:54.729Z,41.27
2023-03-06T09:06:23.479Z,47.17
2023-03-06T09:08:54.897Z,39.27
2023-03-06T09:11:25.025Z,42.27
2023-03-06T09:13:53.849Z,41.57
2023-03-06T09:16:22.493Z,36.20
2023-03-06T09:18:53.005Z,36.70
2023-03-06T09:21:21.522Z,38.73
2023-03-06T09:23:49.921Z,36.83
2023-03-06T09:26:19.737Z,39.27
2023-03-06T09:28:48.226Z,38.13
2023-03-06T09:31:18.542Z,38.57
2023-03-06T09:33:47.449Z,35.40
2023-03-06T09:36:17.614Z,37.53
2023-03-06T09:38:48.013Z,35.83
2023-03-06T09:41:28.603Z,40.60
2023-03-06T09:44:04.889Z,40.00
2023-03-06T09:46:45.656Z,36.00
2023-03-06T09:49:38.268Z,36.27
2023-03-06T09:52:19.736Z,36.00
2023-03-06T09:54:49.329Z,32.47
2023-03-06T09:57:22.886Z,35.50
2023-03-06T09:59:56.001Z,35.20
2023-03-06T10:02:32.470Z,37.77
2023-03-06T10:05:04.201Z,39.20
2023-03-06T10:07:43.976Z,39.03
2023-03-06T10:10:19.543Z,35.77
2023-03-06T10:12:58.444Z,34.03
2023-03-06T10:15:30.345Z,34.90
2023-03-06T10:17:58.866Z,30.07
2023-03-06T10:20:28.843Z,31.67
2023-03-06T10:23:25.080Z,32.73
2023-03-06T10:26:00.447Z,29.57
2023-03-06T10:28:37.574Z,29.50
2023-03-06T10:31:14.656Z,30.10
2023-03-06T10:33:53.436Z,30.17
2023-03-06T10:36:23.401Z,28.40
2023-03-06T10:38:51.733Z,29.13
2023-03-06T10:41:26.232Z,24.20
2023-03-06T10:44:22.146Z,24.20
2023-03-06T10:46:52.685Z,24.33
2023-03-06T10:49:31.199Z,27.27
2023-03-06T10:52:03.188Z,25.57
2023-03-06T10:54:33.512Z,29.50
2023-03-06T10:57:20.670Z,28.37
2023-03-06T10:59:55.210Z,30.73
2023-03-06T11:02:29.745Z,31.23
2023-03-06T11:05:00.154Z,30.23
2023-03-06T11:07:29.713Z,34.23
2023-03-06T11:10:04.611Z,33.90
2023-03-06T11:12:34.639Z,30.47
2023-03-06T11:15:24.995Z,30.33
2023-03-06T11:17:56.699Z,29.80
2023-03-06T11:20:27.795Z,28.10
2023-03-06T11:23:00.379Z,27.93
2023-03-06T11:25:33.601Z,30.57
2023-03-06T11:28:05.508Z,29.83
2023-03-06T11:30:42.878Z,24.00
2023-03-06T11:33:19.921Z,24.07
2023-03-06T11:35:55.417Z,23.33
2023-03-06T11:38:30.865Z,25.07
2023-03-06T11:41:02.446Z,25.03
2023-03-06T11:43:37.684Z,29.57
2023-03-06T11:46:20.238Z,27.37
2023-03-06T11:48:54.100Z,30.07
2023-03-06T11:51:26.697Z,28.30
2023-03-06T11:53:56.076Z,26.93
2023-03-06T11:56:37.276Z,29.93
2023-03-06T11:59:25.571Z,31.10
2023-03-06T12:02:03.240Z,26.57
2023-03-06T12:04:47.688Z,27.10
2023-03-06T12:07:30.261Z,26.43
2023-03-06T12:10:07.356Z,26.87
2023-03-06T12:13:05.078Z,31.17
2023-03-06T12:15:49.086Z,26.33
2023-03-06T12:18:35.398Z,28.03
2023-03-06T12:21:08.278Z,28.47
2023-03-06T12:23:55.091Z,26.13
2023-03-06T12:26:40.425Z,26.70
2023-03-06T12:29:23.789Z,32.07
2023-03-06T12:32:04.212Z,31.23
2023-03-06T12:34:51.809Z,30.50
2023-03-06T12:37:28.178Z,32.97
2023-03-06T12:40:26.390Z,29.13
2023-03-06T12:43:11.057Z,31.57
2023-03-06T12:45:39.840Z,34.47
2023-03-06T12:48:15.805Z,33.50
2023-03-06T12:50:46.422Z,33.53
2023-03-06T12:53:17.285Z,33.27
2023-03-06T12:55:47.684Z,35.87
2023-03-06T12:58:35.422Z,34.03
2023-03-06T13:01:10.710Z,33.13
2023-03-06T13:03:57.217Z,32.93
2023-03-06T13:06:56.076Z,30.77
2023-03-06T13:09:32.591Z,28.83
2023-03-06T13:12:24.762Z,27.90
2023-03-06T13:14:59.499Z,31.57
2023-03-06T13:17:38.625Z,30.83
2023-03-06T13:20:39.010Z,29.10
2023-03-06T13:23:53.250Z,33.13
2023-03-06T13:26:55.231Z,30.33
2023-03-06T13:29:59.825Z,29.50
2023-03-06T13:32:35.824Z,27.83
2023-03-06T13:35:19.284Z,26.73
2023-03-06T13:37:51.696Z,25.50
2023-03-06T13:40:33.346Z,28.00
2023-03-06T13:43:32.027Z,30.67
2023-03-06T13:46:25.111Z,28.30
2023-03-06T13:49:06.747Z,26.60
2023-03-06T13:51:37.756Z,23.83
2023-03-06T13:54:33.136Z,26.30
2023-03-06T13:57:38.509Z,29.13
2023-03-06T14:00:44.965Z,23.57
2023-03-06T14:03:36.200Z,26.57
2023-03-06T14:06:43.243Z,22.07
2023-03-06T14:09:22.264Z,24.23
2023-03-06T14:11:54.261Z,21.00
2023-03-06T14:14:33.814Z,23.87
2023-03-06T14:17:05.160Z,21.23
2023-03-06T14:19:38.833Z,22.97
2023-03-06T14:22:08.287Z,20.07
2023-03-06T14:24:40.498Z,22.10
2023-03-06T14:27:17.623Z,22.33
2023-03-06T14:29:48.842Z,23.30
2023-03-06T14:32:21.307Z,20.07
2023-03-06T14:34:50.099Z,22.17
2023-03-06T14:37:21.986Z,20.13
2023-03-06T14:39:52.348Z,21.53
2023-03-06T14:42:22.428Z,21.40
2023-03-06T14:45:01.847Z,23.57
2023-03-06T14:47:32.018Z,20.40
2023-03-06T14:50:20.249Z,19.73
2023-03-06T14:52:48.829Z,18.37
2023-03-06T14:55:20.142Z,21.97
2023-03-06T14:57:52.522Z,18.80
2023-03-06T15:00:24.325Z,20.33
2023-03-06T15:02:55.832Z,18.90
2023-03-06T15:05:27.028Z,20.20
2023-03-06T15:07:59.430Z,18.57
2023-03-06T15:10:35.890Z,17.53
2023-03-06T15:13:23.382Z,19.70
2023-03-06T15:15:58.145Z,20.30
2023-03-06T15:18:34.354Z,17.20
2023-03-06T15:21:17.522Z,19.27
2023-03-06T15:23:48.561Z,21.90
2023-03-06T15:26:29.354Z,20.27
2023-03-06T15:29:09.385Z,18.80
2023-03-06T15:31:39.057Z,19.07
2023-03-06T15:34:23.777Z,21.07
2023-03-06T15:36:55.714Z,24.70
2023-03-06T15:39:29.732Z,21.50
2023-03-06T15:42:00.126Z,21.70
2023-03-06T15:44:31.513Z,20.63
2023-03-06T15:47:08.805Z,22.27
2023-03-06T15:49:38.276Z,22.13
2023-03-06T15:52:06.651Z,22.90
2023-03-06T15:54:34.882Z,22.87
2023-03-06T15:57:06.264Z,23.50
2023-03-06T15:59:40.320Z,24.50
2023-03-06T16:02:16.464Z,23.87
2023-03-06T16:04:45.012Z,26.03
2023-03-06T16:07:14.121Z,27.90
2023-03-06T16:09:43.053Z,25.93
2023-03-06T16:12:17.520Z,21.50
2023-03-06T16:14:47.405Z,24.33
2023-03-06T16:17:16.730Z,23.00
2023-03-06T16:19:45.470Z,24.03
2023-03-06T16:22:13.947Z,24.73
2023-03-06T16:24:43.308Z,24.37
2023-03-06T16:27:20.002Z,25.07
2023-03-06T16:29:48.195Z,27.97
2023-03-06T16:32:16.517Z,20.53
2023-03-06T16:34:44.845Z,22.83
2023-03-06T16:37:14.488Z,25.57
2023-03-06T16:39:42.742Z,33.67
2023-03-06T16:42:11.740Z,21.27
2023-03-06T16:44:41.288Z,24.27
2023-03-06T16:47:12.470Z,22.20
2023-03-06T16:49:40.678Z,25.67
2023-03-06T16:52:09.957Z,26.67
2023-03-06T16:54:38.609Z,22.70
2023-03-06T16:57:06.725Z,21.30
2023-03-06T16:59:34.860Z,23.90
2023-03-06T17:02:04.707Z,25.07
2023-03-06T17:04:32.880Z,23.30
2023-03-06T17:07:01.019Z,21.97
2023-03-06T17:09:29.246Z,22.80
2023-03-06T17:11:57.375Z,21.20
2023-03-06T17:14:25.512Z,23.77
2023-03-06T17:16:55.202Z,21.10
2023-03-06T17:19:25.065Z,23.13
2023-03-06T17:21:53.193Z,20.47
2023-03-06T17:24:21.850Z,24.17
2023-03-06T17:26:50.030Z,21.57
2023-03-06T17:29:18.294Z,16.87
2023-03-06T17:31:48.163Z,18.77
2023-03-06T17:34:16.345Z,17.27
2023-03-06T17:36:45.989Z,15.90
2023-03-06T17:39:14.496Z,14.63
2023-03-06T17:41:44.145Z,14.63
2023-03-06T17:44:16.155Z,17.53
2023-03-06T17:46:44.653Z,14.67
2023-03-06T17:49:13.390Z,14.57
2023-03-06T17:51:41.724Z,17.50
2023-03-06T17:54:11.396Z,16.67
2023-03-06T17:56:39.498Z,18.17
2023-03-06T17:59:07.784Z,18.60
2023-03-06T18:01:36.335Z,18.10
2023-03-06T18:04:04.922Z,19.97
2023-03-06T18:06:34.125Z,18.33
2023-03-06T18:09:02.910Z,21.20
2023-03-06T18:11:32.814Z,26.83
2023-03-06T18:14:01.868Z,23.33
2023-03-06T18:16:31.240Z,22.00
2023-03-06T18:18:59.401Z,26.63
2023-03-06T18:21:27.849Z,24.47
2023-03-06T18:23:56.022Z,21.90
2023-03-06T18:26:26.016Z,23.97
2023-03-06T18:28:57.449Z,22.07
2023-03-06T18:31:27.685Z,18.63
2023-03-06T18:33:58.865Z,20.20
2023-03-06T18:36:29.565Z,22.37
2023-03-06T18:38:58.382Z,25.63
2023-03-06T18:41:26.561Z,21.13
2023-03-06T18:43:57.868Z,15.63
2023-03-06T18:46:27.456Z,18.17
2023-03-06T18:48:56.388Z,17.80
2023-03-06T18:51:24.589Z,15.73
2023-03-06T18:53:53.070Z,14.13
2023-03-06T18:56:23.159Z,14.40
2023-03-06T18:58:51.510Z,15.23
2023-03-06T19:01:22.457Z,12.83
2023-03-06T19:03:50.979Z,14.00
2023-03-06T19:06:20.516Z,16.67
2023-03-06T19:08:48.742Z,18.10
2023-03-06T19:11:18.477Z,20.17
2023-03-06T19:13:46.759Z,16.37
2023-03-06T19:16:19.145Z,16.77
2023-03-06T19:18:48.876Z,20.93
2023-03-06T19:21:19.099Z,16.57
2023-03-06T19:23:47.774Z,17.30
2023-03-06T19:26:18.686Z,18.90
2023-03-06T19:28:47.868Z,22.47
2023-03-06T19:31:20.269Z,21.47
2023-03-06T19:33:52.980Z,21.50
2023-03-06T19:36:23.769Z,18.00
2023-03-06T19:38:55.116Z,16.20
2023-03-06T19:41:23.353Z,18.93
2023-03-06T19:43:53.856Z,20.07
2023-03-06T19:46:22.847Z,18.77
2023-03-06T19:48:55.839Z,13.13
2023-03-06T19:51:24.116Z,17.67
2023-03-06T19:53:53.284Z,15.57
2023-03-06T19:56:23.098Z,19.10
2023-03-06T19:58:52.079Z,18.90
2023-03-06T20:01:22.066Z,15.43
2023-03-06T20:03:58.361Z,17.67
2023-03-06T20:06:28.421Z,15.20
2023-03-06T20:08:56.816Z,13.83
2023-03-06T20:11:27.462Z,15.67
2023-03-06T20:13:55.628Z,13.13
2023-03-06T20:16:23.832Z,20.00
2023-03-06T20:18:53.952Z,18.37
2023-03-06T20:21:23.352Z,11.33
2023-03-06T20:23:52.873Z,16.47
2023-03-06T20:26:21.469Z,16.43
2023-03-06T20:28:49.829Z,17.83
2023-03-06T20:31:20.899Z,18.40
2023-03-06T20:33:51.130Z,17.77
2023-03-06T20:36:22.601Z,15.33
2023-03-06T20:38:51.047Z,18.30
2023-03-06T20:41:21.125Z,16.27
2023-03-06T20:43:49.564Z,10.63
2023-03-06T20:46:18.163Z,16.70
2023-03-06T20:48:49.639Z,14.17
2023-03-06T20:51:20.638Z,15.20
2023-03-06T20:53:50.088Z,13.00
2023-03-06T20:56:20.640Z,12.47
2023-03-06T20:58:49.076Z,12.63
2023-03-06T21:01:21.003Z,12.13
2023-03-06T21:03:49.484Z,13.07
2023-03-06T21:06:18.527Z,8.87
2023-03-06T21:08:48.927Z,14.43
2023-03-06T21:11:18.075Z,10.53
2023-03-06T21:13:46.229Z,12.70
2023-03-06T21:16:16.250Z,10.43
2023-03-06T21:18:46.252Z,11.67
2023-03-06T21:21:16.456Z,11.87
2023-03-06T21:23:44.712Z,17.27
2023-03-06T21:26:16.163Z,14.90
2023-03-06T21:28:46.926Z,11.67
2023-03-06T21:31:16.923Z,14.67
2023-03-06T21:33:46.326Z,18.30
2023-03-06T21:36:14.802Z,13.40
2023-03-06T21:38:45.582Z,11.87
2023-03-06T21:41:17.274Z,12.33
2023-03-06T21:43:45.399Z,9.27
2023-03-06T21:46:13.870Z,8.83
2023-03-06T21:48:42.116Z,10.50
2023-03-06T21:51:12.384Z,9.13
2023-03-06T21:53:43.377Z,13.73
2023-03-06T21:56:12.492Z,10.77
2023-03-06T21:58:42.268Z,9.13
2023-03-06T22:01:12.535Z,10.30
2023-03-06T22:03:41.186Z,6.97
2023-03-06T22:06:10.786Z,8.20
2023-03-06T22:08:39.107Z,8.23
2023-03-06T22:11:09.529Z,11.20
2023-03-06T22:13:37.824Z,7.80
2023-03-06T22:16:08.563Z,11.07
2023-03-06T22:18:36.999Z,8.97
2023-03-06T22:21:08.881Z,6.97
2023-03-06T22:23:37.362Z,11.47
2023-03-06T22:26:06.729Z,10.57
2023-03-06T22:28:35.612Z,11.97
2023-03-06T22:31:10.438Z,11.90
2023-03-06T22:33:39.039Z,9.90
2023-03-06T22:36:09.747Z,10.50
2023-03-06T22:38:39.478Z,11.10
2023-03-06T22:41:08.889Z,11.23
2023-03-06T22:43:37.620Z,11.90
2023-03-06T22:46:09.025Z,13.23
2023-03-06T22:48:37.685Z,14.13
2023-03-06T22:51:07.598Z,14.23
2023-03-06T22:53:36.749Z,6.17
2023-03-06T22:56:07.738Z,7.47
2023-03-06T22:58:37.692Z,5.73
2023-03-06T23:01:09.887Z,6.20
2023-03-06T23:03:39.596Z,6.73
2023-03-06T23:06:09.336Z,12.03
2023-03-06T23:08:37.618Z,12.37
2023-03-06T23:11:10.113Z,7.83
2023-03-06T23:13:38.770Z,9.33
2023-03-06T23:16:10.071Z,6.83
2023-03-06T23:18:39.240Z,7.07
2023-03-06T23:21:08.825Z,5.37
2023-03-06T23:23:37.356Z,7.97
2023-03-06T23:26:06.126Z,6.40
2023-03-06T23:28:36.980Z,7.60
2023-03-06T23:31:09.862Z,9.30
2023-03-06T23:33:38.828Z,10.60
2023-03-06T23:36:08.822Z,7.00
2023-03-06T23:38:38.006Z,11.73
2023-03-06T23:41:07.890Z,14.33
2023-03-06T23:43:36.421Z,9.90
2023-03-06T23:46:06.335Z,13.43
2023-03-06T23:48:36.797Z,6.77
2023-03-06T23:51:07.519Z,12.53
2023-03-06T23:53:36.219Z,10.17
2023-03-06T23:56:06.674Z,11.43
2023-03-06T23:58:35.026Z,11.77
